Huntington Beach, California
Current Conditions -  °F | °C
As of 12:53 AM on Thursday 27 Nov 2014 (Local Time) from KSNA Reporting Station
Clear Clear  
Wind Chill: 59°   Ceiling: Unl
Heat Index: 59°   Visibility: 10mi
Dew Point: 42°   Wind: 0mph
Humidity: 53%   Direction: NA
Pressure: 30.09"   Gusts: NA
Location:  33.68°N, 118°W
Report Text: KSNA 270853Z 00000KT 10SM CLR 15/06 A3009 RMK AO2 SLP189 T01500056 58009
Loading
Personal Weather Stations






























Interactive Weather Map New forecast layout! Learn more

10-Day Weather Forecast

Advertisements
Track Severe Weather on mobile